createdAt,value
2023-02-15T00:01:34.715Z,40.97
2023-02-15T00:04:02.174Z,43.83
2023-02-15T00:06:29.362Z,47.85
2023-02-15T00:08:56.694Z,35.20
2023-02-15T00:11:43.395Z,41.42
2023-02-15T00:14:12.214Z,39.50
2023-02-15T00:16:40.486Z,38.55
2023-02-15T00:19:08.140Z,43.20
2023-02-15T00:21:36.097Z,37.45
2023-02-15T00:24:04.832Z,36.00
2023-02-15T00:26:32.412Z,38.65
2023-02-15T00:28:59.976Z,40.53
2023-02-15T00:31:28.583Z,39.42
2023-02-15T00:33:56.705Z,45.97
2023-02-15T00:38:50.786Z,42.50
2023-02-15T00:43:44.548Z,37.60
2023-02-15T00:46:11.788Z,36.53
2023-02-15T00:48:40.184Z,36.90
2023-02-15T00:53:33.935Z,35.58
2023-02-15T00:58:28.428Z,33.97
2023-02-15T01:03:24.350Z,39.78
2023-02-15T01:08:18.373Z,47.00
2023-02-15T01:10:47.988Z,32.83
2023-02-15T01:13:16.561Z,33.30
2023-02-15T01:15:44.480Z,34.40
2023-02-15T01:18:11.964Z,33.03
2023-02-15T01:20:41.930Z,33.55
2023-02-15T01:23:09.732Z,32.85
2023-02-15T01:25:37.280Z,39.58
2023-02-15T01:28:05.084Z,39.83
2023-02-15T01:30:33.408Z,38.50
2023-02-15T01:33:01.785Z,36.35
2023-02-15T01:35:31.527Z,37.60
2023-02-15T01:40:25.574Z,30.88
2023-02-15T01:42:56.888Z,35.42
2023-02-15T01:45:28.212Z,33.03
2023-02-15T01:47:58.086Z,32.38
2023-02-15T01:50:28.223Z,34.28
2023-02-15T01:53:15.074Z,36.17
2023-02-15T01:55:44.992Z,37.08
2023-02-15T01:58:12.216Z,37.35
2023-02-15T02:00:39.318Z,36.30
2023-02-15T02:05:33.870Z,38.65
2023-02-15T02:08:02.588Z,40.28
2023-02-15T02:10:29.952Z,36.38
2023-02-15T02:12:59.922Z,34.33
2023-02-15T02:15:32.005Z,38.92
2023-02-15T02:18:09.377Z,32.00
2023-02-15T02:21:14.753Z,38.80
2023-02-15T02:23:44.744Z,35.10
2023-02-15T02:26:32.549Z,33.45
2023-02-15T02:29:17.917Z,38.50
2023-02-15T02:32:04.264Z,37.50
2023-02-15T02:34:34.285Z,36.70
2023-02-15T02:37:11.751Z,31.02
2023-02-15T02:39:41.903Z,36.08
2023-02-15T02:42:42.549Z,32.80
2023-02-15T02:45:12.150Z,42.38
2023-02-15T02:47:45.080Z,34.13
2023-02-15T02:50:17.353Z,39.17
2023-02-15T02:52:45.809Z,38.45
2023-02-15T02:55:33.676Z,36.95
2023-02-15T02:58:06.956Z,39.13
2023-02-15T03:00:36.697Z,37.08
2023-02-15T03:03:21.931Z,35.38
2023-02-15T03:05:51.435Z,36.17
2023-02-15T03:08:23.089Z,35.83
2023-02-15T03:10:52.691Z,39.97
2023-02-15T03:13:20.644Z,33.97
2023-02-15T03:16:08.266Z,42.65
2023-02-15T03:18:42.483Z,35.45
2023-02-15T03:21:10.646Z,38.17
2023-02-15T03:23:38.764Z,39.05
2023-02-15T03:26:07.474Z,36.47
2023-02-15T03:28:47.283Z,35.28
2023-02-15T03:31:16.471Z,42.95
2023-02-15T03:33:52.238Z,36.80
2023-02-15T03:36:24.906Z,37.47
2023-02-15T03:39:00.992Z,33.42
2023-02-15T03:41:29.387Z,40.20
2023-02-15T03:44:13.653Z,32.95
2023-02-15T03:46:46.443Z,35.80
2023-02-15T03:49:13.629Z,38.85
2023-02-15T03:54:10.170Z,37.35
2023-02-15T03:56:39.050Z,35.47
2023-02-15T03:59:24.843Z,34.03
2023-02-15T04:02:14.047Z,37.17
2023-02-15T04:04:43.738Z,43.13
2023-02-15T04:07:11.030Z,32.20
2023-02-15T04:09:57.041Z,44.60
2023-02-15T04:12:24.626Z,37.75
2023-02-15T04:15:10.252Z,32.53
2023-02-15T04:17:38.623Z,37.85
2023-02-15T04:20:24.738Z,38.20
2023-02-15T04:23:10.583Z,39.92
2023-02-15T04:25:37.677Z,33.60
2023-02-15T04:30:31.545Z,31.60
2023-02-15T04:32:58.816Z,31.17
2023-02-15T04:35:26.657Z,43.33
2023-02-15T04:37:53.809Z,34.75
2023-02-15T04:42:50.348Z,34.20
2023-02-15T04:45:17.970Z,31.35
2023-02-15T04:47:45.413Z,33.88
2023-02-15T04:50:12.741Z,31.17
2023-02-15T04:52:39.894Z,34.80
2023-02-15T04:57:34.057Z,29.10
2023-02-15T05:02:27.770Z,31.98
2023-02-15T05:07:21.544Z,30.35
2023-02-15T05:12:15.763Z,31.70
2023-02-15T05:17:09.459Z,29.83
2023-02-15T05:22:03.102Z,31.88
2023-02-15T05:24:48.836Z,28.45
2023-02-15T05:27:34.618Z,34.78
2023-02-15T05:30:01.871Z,34.97
2023-02-15T05:32:29.174Z,35.60
2023-02-15T05:34:56.356Z,31.95
2023-02-15T05:39:50.073Z,37.55
2023-02-15T05:44:43.791Z,31.40
2023-02-15T05:49:37.508Z,33.05
2023-02-15T05:54:31.776Z,24.88
2023-02-15T05:59:25.971Z,30.95
2023-02-15T06:04:20.123Z,30.80
2023-02-15T06:06:47.222Z,35.30
2023-02-15T06:11:41.404Z,28.70
2023-02-15T06:16:35.118Z,32.25
2023-02-15T06:19:02.849Z,30.83
2023-02-15T06:21:30.426Z,33.45
2023-02-15T06:23:57.522Z,34.25
2023-02-15T06:28:51.428Z,32.22
2023-02-15T06:33:45.370Z,29.25
2023-02-15T06:36:13.566Z,39.38
2023-02-15T06:38:40.654Z,33.05
2023-02-15T06:43:35.120Z,35.42
2023-02-15T06:46:02.764Z,34.63
2023-02-15T06:48:30.008Z,36.78
2023-02-15T06:50:59.642Z,35.13
2023-02-15T06:53:27.480Z,30.73
2023-02-15T06:58:21.607Z,32.55
2023-02-15T07:00:50.320Z,28.27
2023-02-15T07:03:17.527Z,30.08
2023-02-15T07:08:11.732Z,33.13
2023-02-15T07:13:05.443Z,31.15
2023-02-15T07:18:00.033Z,30.40
2023-02-15T07:20:27.664Z,27.02
2023-02-15T07:22:54.755Z,33.03
2023-02-15T07:27:49.134Z,41.70
2023-02-15T07:30:17.409Z,35.20
2023-02-15T07:33:05.286Z,35.63
2023-02-15T07:35:32.797Z,41.15
2023-02-15T07:37:59.908Z,31.40
2023-02-15T07:42:55.449Z,32.15
2023-02-15T07:45:22.892Z,30.67
2023-02-15T07:47:50.019Z,34.30
2023-02-15T07:52:44.214Z,38.92
2023-02-15T07:57:47.879Z,32.53
2023-02-15T08:00:16.256Z,37.83
2023-02-15T08:02:43.516Z,33.38
2023-02-15T08:05:10.636Z,35.58
2023-02-15T08:10:04.442Z,33.30
2023-02-15T08:12:31.567Z,37.25
2023-02-15T08:17:25.304Z,32.30
2023-02-15T08:22:19.067Z,31.20
2023-02-15T08:24:46.140Z,35.80
2023-02-15T08:29:40.567Z,37.95
2023-02-15T08:32:09.998Z,34.10
2023-02-15T08:34:39.268Z,35.90
2023-02-15T08:37:07.015Z,38.72
2023-02-15T08:39:34.564Z,37.58
2023-02-15T08:42:01.812Z,35.67
2023-02-15T08:44:29.047Z,39.63
2023-02-15T08:46:58.352Z,41.95
2023-02-15T08:49:25.572Z,37.90
2023-02-15T08:51:52.617Z,34.03
2023-02-15T08:56:47.903Z,42.22
2023-02-15T08:59:19.207Z,37.22
2023-02-15T09:01:46.702Z,41.38
2023-02-15T09:04:14.138Z,41.85
2023-02-15T09:06:42.116Z,39.90
2023-02-15T09:09:09.417Z,38.35
2023-02-15T09:11:38.401Z,34.85
2023-02-15T09:14:08.966Z,39.20
2023-02-15T09:16:36.884Z,40.97
2023-02-15T09:19:07.326Z,42.50
2023-02-15T09:21:35.618Z,38.95
2023-02-15T09:24:04.347Z,39.20
2023-02-15T09:26:34.979Z,42.22
2023-02-15T09:29:04.437Z,46.80
2023-02-15T09:31:33.425Z,39.13
2023-02-15T09:34:04.404Z,43.65
2023-02-15T09:36:36.010Z,45.00
2023-02-15T09:39:08.614Z,46.63
2023-02-15T09:41:38.865Z,41.97
2023-02-15T09:44:42.878Z,48.40
2023-02-15T09:47:32.451Z,41.35
2023-02-15T09:50:09.819Z,39.85
2023-02-15T09:52:54.907Z,45.38
2023-02-15T09:55:26.683Z,44.70
2023-02-15T09:58:06.328Z,42.70
2023-02-15T10:03:21.059Z,40.78
2023-02-15T10:05:48.142Z,43.13
2023-02-15T10:08:40.162Z,46.10
2023-02-15T10:11:31.903Z,39.60
2023-02-15T10:14:10.514Z,42.80
2023-02-15T10:16:45.933Z,45.20
2023-02-15T10:19:27.187Z,45.92
2023-02-15T10:21:55.919Z,42.50
2023-02-15T10:24:25.828Z,44.30
2023-02-15T10:26:55.331Z,43.78
2023-02-15T10:29:22.454Z,47.47
2023-02-15T10:31:54.386Z,44.38
2023-02-15T10:34:23.605Z,42.13
2023-02-15T10:37:05.891Z,41.42
2023-02-15T10:39:38.829Z,40.80
2023-02-15T10:42:05.875Z,40.72
2023-02-15T10:44:32.964Z,42.42
2023-02-15T10:47:11.452Z,41.17
2023-02-15T10:52:24.753Z,42.03
2023-02-15T10:55:04.771Z,41.15
2023-02-15T10:57:43.807Z,39.85
2023-02-15T11:00:11.780Z,37.70
2023-02-15T11:02:50.568Z,41.58
2023-02-15T11:05:27.120Z,42.97
2023-02-15T11:07:55.736Z,38.28
2023-02-15T11:10:33.796Z,41.47
2023-02-15T11:13:04.076Z,38.10
2023-02-15T11:15:36.605Z,40.40
2023-02-15T11:18:08.653Z,42.35
2023-02-15T11:20:38.992Z,35.47
2023-02-15T11:23:16.190Z,41.13
2023-02-15T11:25:45.129Z,41.72
2023-02-15T11:28:18.682Z,41.38
2023-02-15T11:30:47.961Z,48.15
2023-02-15T11:33:23.255Z,45.05
2023-02-15T11:35:50.395Z,39.03
2023-02-15T11:38:27.205Z,47.83
2023-02-15T11:41:11.745Z,42.65
2023-02-15T11:43:48.940Z,40.33
2023-02-15T11:46:16.181Z,44.58
2023-02-15T11:48:44.004Z,39.10
2023-02-15T11:51:13.706Z,39.13
2023-02-15T11:53:41.094Z,41.42
2023-02-15T11:56:14.384Z,43.03
2023-02-15T12:01:15.761Z,36.78
2023-02-15T12:03:50.219Z,38.70
2023-02-15T12:06:28.309Z,42.00
2023-02-15T12:09:07.980Z,43.03
2023-02-15T12:11:39.710Z,40.00
2023-02-15T12:14:07.994Z,43.55
2023-02-15T12:16:55.450Z,38.03
2023-02-15T12:19:33.813Z,42.13
2023-02-15T12:22:02.876Z,39.13
2023-02-15T12:24:32.279Z,38.00
2023-02-15T12:27:16.866Z,38.97
2023-02-15T12:29:52.821Z,43.72
2023-02-15T12:32:23.191Z,43.50
2023-02-15T12:34:51.527Z,40.60
2023-02-15T12:37:20.795Z,41.15
2023-02-15T12:39:58.314Z,40.78
2023-02-15T12:42:26.008Z,44.45
2023-02-15T12:45:05.156Z,40.28
2023-02-15T12:47:33.344Z,41.72
2023-02-15T12:50:17.798Z,40.97
2023-02-15T12:52:48.458Z,37.90
2023-02-15T12:55:21.810Z,39.67
2023-02-15T12:57:49.112Z,39.35
2023-02-15T13:00:16.284Z,39.85
2023-02-15T13:02:51.552Z,41.42
2023-02-15T13:05:21.832Z,41.42
2023-02-15T13:07:53.412Z,39.55
2023-02-15T13:10:25.700Z,39.00
2023-02-15T13:12:55.199Z,41.63
2023-02-15T13:15:27.704Z,42.47
2023-02-15T13:17:56.573Z,43.40
2023-02-15T13:20:24.860Z,39.28
2023-02-15T13:22:53.984Z,41.22
2023-02-15T13:25:25.046Z,39.25
2023-02-15T13:27:54.609Z,42.13
2023-02-15T13:30:22.244Z,41.38
2023-02-15T13:32:51.015Z,43.10
2023-02-15T13:35:19.776Z,40.78
2023-02-15T13:37:46.920Z,43.17
2023-02-15T13:40:17.176Z,44.50
2023-02-15T13:43:07.363Z,42.08
2023-02-15T13:45:55.559Z,38.60
2023-02-15T13:48:59.967Z,41.70
2023-02-15T13:51:31.713Z,38.30
2023-02-15T13:54:01.979Z,37.15
2023-02-15T13:56:34.953Z,39.55
2023-02-15T13:59:28.931Z,38.22
2023-02-15T14:02:16.414Z,40.35
2023-02-15T14:04:54.766Z,44.10
2023-02-15T14:07:24.672Z,44.13
2023-02-15T14:09:58.010Z,43.72
2023-02-15T14:12:35.625Z,45.50
2023-02-15T14:15:33.289Z,37.72
2023-02-15T14:18:16.366Z,39.58
2023-02-15T14:20:52.238Z,44.05
2023-02-15T14:23:20.607Z,43.95
2023-02-15T14:25:52.005Z,42.30
2023-02-15T14:28:37.855Z,45.47
2023-02-15T14:31:07.638Z,42.80
2023-02-15T14:33:37.361Z,43.60
2023-02-15T14:36:07.339Z,45.13
2023-02-15T14:39:02.057Z,43.63
2023-02-15T14:41:33.296Z,40.13
2023-02-15T14:44:03.439Z,45.00
2023-02-15T14:46:33.447Z,43.58
2023-02-15T14:49:08.088Z,45.03
2023-02-15T14:51:44.127Z,42.20
2023-02-15T14:54:33.612Z,43.83
2023-02-15T14:57:04.753Z,37.97
2023-02-15T14:59:39.931Z,44.47
2023-02-15T15:02:10.166Z,41.55
2023-02-15T15:04:43.233Z,45.13
2023-02-15T15:09:43.845Z,43.85
2023-02-15T15:12:23.095Z,47.22
2023-02-15T15:14:50.977Z,51.40
2023-02-15T15:17:38.791Z,46.25
2023-02-15T15:20:26.023Z,46.08
2023-02-15T15:23:13.103Z,46.65
2023-02-15T15:25:53.739Z,44.65
2023-02-15T15:28:36.136Z,46.72
2023-02-15T15:31:06.617Z,46.10
2023-02-15T15:33:39.857Z,51.70
2023-02-15T15:36:06.893Z,45.10
2023-02-15T15:38:37.133Z,45.63
2023-02-15T15:41:13.075Z,47.42
2023-02-15T15:43:55.243Z,46.33
2023-02-15T15:46:35.526Z,45.08
2023-02-15T15:49:13.906Z,40.13
2023-02-15T15:51:42.949Z,42.22
2023-02-15T15:54:17.963Z,46.83
2023-02-15T15:56:48.772Z,45.30
2023-02-15T15:59:20.360Z,46.63
2023-02-15T16:01:47.913Z,47.72
2023-02-15T16:04:23.356Z,43.50
2023-02-15T16:06:50.446Z,47.55
2023-02-15T16:09:19.773Z,43.83
2023-02-15T16:11:52.017Z,44.33
2023-02-15T16:14:25.446Z,48.28
2023-02-15T16:16:55.762Z,50.17
2023-02-15T16:19:25.119Z,47.80
2023-02-15T16:21:52.377Z,50.40
2023-02-15T16:24:24.108Z,47.20
2023-02-15T16:27:16.636Z,43.65
2023-02-15T16:29:43.773Z,48.78
2023-02-15T16:32:20.372Z,47.33
2023-02-15T16:34:53.824Z,52.97
2023-02-15T16:37:27.037Z,46.97
2023-02-15T16:39:55.337Z,46.85
2023-02-15T16:42:23.129Z,42.42
2023-02-15T16:44:53.594Z,49.97
2023-02-15T16:47:32.408Z,47.58
2023-02-15T16:50:01.781Z,47.25
2023-02-15T16:52:29.824Z,46.42
2023-02-15T16:55:00.978Z,47.95
2023-02-15T16:57:38.985Z,51.63
2023-02-15T17:00:07.590Z,50.63
2023-02-15T17:02:55.693Z,46.53
2023-02-15T17:05:23.088Z,49.80
2023-02-15T17:07:52.010Z,49.90
2023-02-15T17:10:37.217Z,50.13
2023-02-15T17:13:11.748Z,52.45
2023-02-15T17:15:40.060Z,46.85
2023-02-15T17:18:21.030Z,50.75
2023-02-15T17:20:49.280Z,52.08
2023-02-15T17:23:51.842Z,47.15
2023-02-15T17:26:23.694Z,50.55
2023-02-15T17:28:52.015Z,49.67
2023-02-15T17:31:20.338Z,50.03
2023-02-15T17:33:48.448Z,51.28
2023-02-15T17:36:17.066Z,53.55
2023-02-15T17:38:59.276Z,49.78
2023-02-15T17:41:30.439Z,50.22
2023-02-15T17:43:58.060Z,51.10
2023-02-15T17:46:26.818Z,51.65
2023-02-15T17:48:56.314Z,51.25
2023-02-15T17:51:24.142Z,51.80
2023-02-15T17:54:09.841Z,49.42
2023-02-15T17:56:37.699Z,50.75
2023-02-15T17:59:07.978Z,47.63
2023-02-15T18:01:55.514Z,52.08
2023-02-15T18:04:42.002Z,48.63
2023-02-15T18:07:32.910Z,50.03
2023-02-15T18:10:19.150Z,53.95
2023-02-15T18:12:46.490Z,47.55
2023-02-15T18:15:13.620Z,53.92
2023-02-15T18:17:45.160Z,51.33
2023-02-15T18:20:31.286Z,52.45
2023-02-15T18:22:58.531Z,57.55
2023-02-15T18:25:25.896Z,50.55
2023-02-15T18:27:55.290Z,56.35
2023-02-15T18:30:23.902Z,52.65
2023-02-15T18:32:53.167Z,49.72
2023-02-15T18:35:21.233Z,55.78
2023-02-15T18:37:48.962Z,48.35
2023-02-15T18:40:26.406Z,52.67
2023-02-15T18:42:53.564Z,50.15
2023-02-15T18:45:26.584Z,50.42
2023-02-15T18:47:57.784Z,48.13
2023-02-15T18:50:31.047Z,49.67
2023-02-15T18:53:02.438Z,53.13
2023-02-15T18:55:37.614Z,47.90
2023-02-15T18:58:06.207Z,46.28
2023-02-15T19:00:34.636Z,47.35
2023-02-15T19:03:02.172Z,55.42
2023-02-15T19:05:30.146Z,50.38
2023-02-15T19:07:57.932Z,49.60
2023-02-15T19:10:26.342Z,50.58
2023-02-15T19:12:53.940Z,48.65
2023-02-15T19:15:22.424Z,51.78
2023-02-15T19:17:49.664Z,48.03
2023-02-15T19:20:18.104Z,51.72
2023-02-15T19:22:46.116Z,50.15
2023-02-15T19:25:19.317Z,50.28
2023-02-15T19:30:16.771Z,54.30
2023-02-15T19:32:44.546Z,48.88
2023-02-15T19:35:22.604Z,53.15
2023-02-15T19:37:51.276Z,50.05
2023-02-15T19:40:23.294Z,50.58
2023-02-15T19:42:50.509Z,55.72
2023-02-15T19:45:19.441Z,52.55
2023-02-15T19:47:48.140Z,50.85
2023-02-15T19:50:15.904Z,52.58
2023-02-15T19:52:43.457Z,53.28
2023-02-15T19:55:16.561Z,62.50
2023-02-15T19:57:43.963Z,51.10
2023-02-15T20:00:22.654Z,44.97
2023-02-15T20:02:50.457Z,55.60
2023-02-15T20:05:17.641Z,54.50
2023-02-15T20:07:46.287Z,49.05
2023-02-15T20:10:18.419Z,52.33
2023-02-15T20:12:47.457Z,52.95
2023-02-15T20:15:22.904Z,53.67
2023-02-15T20:17:50.753Z,56.13
2023-02-15T20:20:21.198Z,54.42
2023-02-15T20:22:49.417Z,54.13
2023-02-15T20:25:19.401Z,45.97
2023-02-15T20:27:46.565Z,54.58
2023-02-15T20:30:21.863Z,52.45
2023-02-15T20:32:49.501Z,52.55
2023-02-15T20:35:17.876Z,52.78
2023-02-15T20:37:46.376Z,51.35
2023-02-15T20:40:14.668Z,53.35
2023-02-15T20:42:41.801Z,55.00
2023-02-15T20:45:15.968Z,51.38
2023-02-15T20:47:48.526Z,49.63
2023-02-15T20:50:17.274Z,45.20
2023-02-15T20:52:44.981Z,53.85
2023-02-15T20:55:14.016Z,48.83
2023-02-15T20:57:41.196Z,49.90
2023-02-15T21:00:13.660Z,54.60
2023-02-15T21:02:42.093Z,53.45
2023-02-15T21:05:30.620Z,58.05
2023-02-15T21:07:58.455Z,53.75
2023-02-15T21:10:27.536Z,51.67
2023-02-15T21:12:55.241Z,48.90
2023-02-15T21:15:28.496Z,45.90
2023-02-15T21:20:24.498Z,52.85
2023-02-15T21:22:52.667Z,52.45
2023-02-15T21:25:23.542Z,52.28
2023-02-15T21:27:51.724Z,53.15
2023-02-15T21:30:19.988Z,48.45
2023-02-15T21:32:47.642Z,52.90
2023-02-15T21:35:15.639Z,50.80
2023-02-15T21:37:43.764Z,47.25
2023-02-15T21:40:13.986Z,48.92
2023-02-15T21:43:00.240Z,47.90
2023-02-15T21:45:46.616Z,46.55
2023-02-15T21:48:14.195Z,50.78
2023-02-15T21:51:00.899Z,51.78
2023-02-15T21:53:31.402Z,51.50
2023-02-15T21:56:00.295Z,48.55
2023-02-15T21:58:28.996Z,45.97
2023-02-15T22:00:57.536Z,53.97
2023-02-15T22:03:25.536Z,49.35
2023-02-15T22:05:52.700Z,58.83
2023-02-15T22:08:20.477Z,42.50
2023-02-15T22:10:48.210Z,48.47
2023-02-15T22:13:17.012Z,46.33
2023-02-15T22:15:47.304Z,57.63
2023-02-15T22:18:22.515Z,49.75
2023-02-15T22:20:50.053Z,48.75
2023-02-15T22:23:17.484Z,46.40
2023-02-15T22:25:46.740Z,52.65
2023-02-15T22:28:16.895Z,46.55
2023-02-15T22:30:45.741Z,48.28
2023-02-15T22:33:24.674Z,48.40
2023-02-15T22:35:52.159Z,47.15
2023-02-15T22:38:19.792Z,46.75
2023-02-15T22:40:48.383Z,47.70
2023-02-15T22:43:22.242Z,47.70
2023-02-15T22:45:50.154Z,53.05
2023-02-15T22:48:20.757Z,49.15
2023-02-15T22:50:47.878Z,50.00
2023-02-15T22:53:15.056Z,50.15
2023-02-15T22:55:42.187Z,46.03
2023-02-15T22:58:10.808Z,46.50
2023-02-15T23:00:40.188Z,51.67
2023-02-15T23:03:18.263Z,53.05
2023-02-15T23:05:46.019Z,45.88
2023-02-15T23:08:13.468Z,52.92
2023-02-15T23:10:41.059Z,51.25
2023-02-15T23:13:23.508Z,49.10
2023-02-15T23:16:00.108Z,46.47
2023-02-15T23:18:35.014Z,50.58
2023-02-15T23:21:05.530Z,53.75
2023-02-15T23:23:33.141Z,48.80
2023-02-15T23:26:03.201Z,48.90
2023-02-15T23:28:34.872Z,49.13
2023-02-15T23:31:02.645Z,54.13
2023-02-15T23:33:32.405Z,49.30
2023-02-15T23:36:00.098Z,52.05
2023-02-15T23:38:29.169Z,54.38
2023-02-15T23:41:20.055Z,48.85
2023-02-15T23:43:49.713Z,52.28
2023-02-15T23:46:25.301Z,52.63
2023-02-15T23:48:53.338Z,52.05
2023-02-15T23:51:21.640Z,54.63
2023-02-15T23:53:48.842Z,48.45
2023-02-15T23:56:16.275Z,47.10
2023-02-15T23:58:44.657Z,51.03
